createdAt,value
2023-02-24T00:00:34.301Z,96265.19
2023-02-24T00:10:50.530Z,96254.14
2023-02-24T00:20:56.820Z,96239.66
2023-02-24T00:31:08.433Z,96235.10
2023-02-24T00:41:17.654Z,96227.00
2023-02-24T00:51:24.295Z,96218.80
2023-02-24T01:01:33.610Z,96212.53
2023-02-24T01:11:57.772Z,96203.73
2023-02-24T01:22:04.876Z,96196.15
2023-02-24T01:32:14.027Z,96192.34
2023-02-24T01:42:22.160Z,96182.02
2023-02-24T01:52:30.594Z,96167.96
2023-02-24T02:02:33.981Z,96162.09
2023-02-24T02:12:44.640Z,96152.24
2023-02-24T02:23:19.452Z,96143.73
2023-02-24T02:34:08.287Z,96129.29
2023-02-24T02:44:17.518Z,96122.79
2023-02-24T02:54:32.478Z,96116.12
2023-02-24T03:04:35.946Z,96111.52
2023-02-24T03:14:51.221Z,96109.42
2023-02-24T03:24:55.599Z,96106.65
2023-02-24T03:35:17.117Z,96107.66
2023-02-24T03:45:23.269Z,96098.59
2023-02-24T03:55:35.412Z,96086.68
2023-02-24T04:05:53.442Z,96071.56
2023-02-24T04:16:01.779Z,96062.67
2023-02-24T04:26:08.037Z,96041.30
2023-02-24T04:36:13.008Z,96017.16
2023-02-24T04:46:20.100Z,96003.75
2023-02-24T04:56:23.418Z,95991.34
2023-02-24T05:06:26.489Z,95981.80
2023-02-24T05:16:29.832Z,95977.13
2023-02-24T05:26:37.137Z,95962.34
2023-02-24T05:36:40.992Z,95954.02
2023-02-24T05:46:47.002Z,95951.08
2023-02-24T05:56:50.233Z,95950.45
2023-02-24T06:06:53.902Z,95945.37
2023-02-24T06:16:59.050Z,95939.64
2023-02-24T06:27:09.940Z,95931.37
2023-02-24T06:37:15.331Z,95924.16
2023-02-24T06:47:18.855Z,95918.04
2023-02-24T06:57:23.701Z,95909.88
2023-02-24T07:07:26.813Z,95901.64
2023-02-24T07:17:30.099Z,95893.73
2023-02-24T07:27:34.226Z,95881.95
2023-02-24T07:37:37.307Z,95870.52
2023-02-24T07:47:44.202Z,95867.89
2023-02-24T07:57:48.555Z,95864.36
2023-02-24T08:07:53.431Z,95855.70
2023-02-24T08:18:00.919Z,95846.93
2023-02-24T08:28:11.777Z,95835.69
2023-02-24T08:38:18.279Z,95835.27
2023-02-24T08:48:32.549Z,95826.95
2023-02-24T08:58:47.610Z,95817.79
2023-02-24T09:09:21.490Z,95821.73
2023-02-24T09:19:40.700Z,95807.27
2023-02-24T09:42:47.604Z,95784.24
2023-02-24T09:53:00.111Z,95776.61
2023-02-24T10:03:41.697Z,95767.36
2023-02-24T10:13:52.314Z,95765.54
2023-02-24T10:24:14.678Z,95747.67
2023-02-24T10:34:21.590Z,95721.63
2023-02-24T10:45:02.582Z,95693.72
2023-02-24T10:55:45.123Z,95672.74
2023-02-24T13:02:00.167Z,95520.52
2023-02-24T13:12:07.261Z,95512.21
2023-02-24T13:22:12.753Z,95505.07
2023-02-24T13:32:33.966Z,95498.48
2023-02-24T13:42:37.321Z,95481.39
2023-02-24T13:52:56.185Z,95464.46
2023-02-24T14:03:00.484Z,95448.41
2023-02-24T14:13:15.902Z,95441.11
2023-02-24T14:23:32.413Z,95431.66
2023-02-24T14:33:38.266Z,95420.51
2023-02-24T14:43:42.319Z,95403.40
2023-02-24T14:53:59.101Z,95387.98
2023-02-24T15:04:32.201Z,95377.40
2023-02-24T15:14:35.501Z,95355.11
2023-02-24T15:24:39.017Z,95340.01
2023-02-24T15:34:46.725Z,95325.52
2023-02-24T15:44:55.431Z,95330.71
2023-02-24T15:55:02.578Z,95330.57
2023-02-24T16:05:06.482Z,95314.10
2023-02-24T16:15:17.003Z,95315.95
2023-02-24T16:25:20.051Z,95308.92
2023-02-24T16:45:47.501Z,95292.26
2023-02-24T16:55:52.137Z,95287.77
2023-02-24T17:05:55.770Z,95274.45
2023-02-24T17:15:59.134Z,95259.62
2023-02-24T17:26:03.809Z,95260.92
2023-02-24T17:36:07.122Z,95263.70
2023-02-24T17:46:10.397Z,95269.80
2023-02-24T17:56:14.842Z,95253.40
2023-02-24T18:06:19.281Z,95235.21
2023-02-24T18:16:22.949Z,95221.77
2023-02-24T18:26:27.563Z,95202.97
2023-02-24T18:36:31.869Z,95197.29
2023-02-24T18:46:37.214Z,95185.66
2023-02-24T18:56:40.408Z,95182.63
2023-02-24T19:06:49.178Z,95163.67
2023-02-24T19:16:52.500Z,95158.13
2023-02-24T19:26:56.446Z,95148.04
2023-02-24T19:36:59.592Z,95131.86
2023-02-24T19:47:03.249Z,95118.30
2023-02-24T19:57:10.002Z,95107.38
2023-02-24T20:07:15.699Z,95085.60
2023-02-24T20:17:19.392Z,95084.27
2023-02-24T20:27:22.825Z,95064.55
2023-02-24T20:37:26.430Z,95047.17
2023-02-24T20:47:29.706Z,95040.87
2023-02-24T20:57:32.956Z,95020.88
2023-02-24T21:07:40.006Z,95002.13
2023-02-24T21:17:43.259Z,94986.63
2023-02-24T21:27:48.483Z,94970.17
2023-02-24T21:37:51.721Z,94963.79
2023-02-24T21:47:55.171Z,94951.69
2023-02-24T21:57:58.529Z,94942.46
2023-02-24T22:08:22.859Z,94912.10
2023-02-24T22:18:27.095Z,94899.72
2023-02-24T22:28:37.831Z,94884.41
2023-02-24T22:38:48.041Z,94852.16
2023-02-24T22:48:52.302Z,94832.33
2023-02-24T22:58:56.239Z,94817.01
2023-02-24T23:09:01.769Z,94803.25
2023-02-24T23:19:11.715Z,94792.22
2023-02-24T23:29:17.855Z,94786.92
2023-02-24T23:39:24.112Z,94770.63
2023-02-24T23:49:36.263Z,94759.13
2023-02-24T23:59:53.215Z,94741.30
